Time;durP1;ratioP1;P1;durP2;ratioP2;P2;SDS_P1;SDS_P2;PMS_P1;PMS_P2;Temp;Humidity;BMP_temperature;BMP_pressure;BME280_temperature;BME280_humidity;BME280_pressure;Samples;Min_cycle;Max_cycle;Signal;HPM_P1;HPM_P2
2023/04/02 00:03:58;;;;;;;3.90;0.50;;;;;;;17.66;55.99;95928.91;10362563;28;20050;-33
2023/04/02 00:09:20;;;;;;;2.33;0.52;;;;;;;17.67;54.98;95930.59;10368360;28;20053;-33
2023/04/02 00:14:25;;;;;;;1.38;0.75;;;;;;;17.69;54.94;95933.94;10339548;28;20112;-33
2023/04/02 00:19:59;;;;;;;1.02;0.32;;;;;;;17.67;53.91;95940.72;10373271;28;20198;-34
2023/04/02 00:25:06;;;;;;;1.60;0.50;;;;;;;17.66;53.40;95941.56;10345988;28;20033;-33
2023/04/02 00:30:10;;;;;;;1.85;0.52;;;;;;;17.66;53.97;95939.03;10362134;28;20030;-33
2023/04/02 00:35:27;;;;;;;1.38;0.43;;;;;;;17.66;53.49;95939.03;10372354;28;20055;-33
2023/04/02 00:40:30;;;;;;;1.13;0.60;;;;;;;17.66;52.99;95933.97;10321106;28;20031;-33
2023/04/02 00:45:35;;;;;;;3.05;0.52;;;;;;;17.64;59.95;95935.66;10349067;28;20030;-33
2023/04/02 00:50:41;;;;;;;4.97;0.82;;;;;;;17.64;60.84;95938.19;10370689;28;20038;-33
2023/04/02 00:55:42;;;;;;;6.63;0.65;;;;;;;17.62;60.49;95939.91;10356991;28;20068;-33
2023/04/02 01:00:49;;;;;;;0.93;0.82;;;;;;;17.63;56.76;95944.09;10358466;28;20060;-33
2023/04/02 01:06:09;;;;;;;3.03;0.93;;;;;;;17.65;54.06;95944.94;10376122;28;20032;-33
2023/04/02 01:11:22;;;;;;;0.80;0.50;;;;;;;17.65;54.06;95942.41;10368355;28;20041;-33
2023/04/02 01:16:26;;;;;;;0.55;0.50;;;;;;;17.64;54.06;95938.19;10345138;28;20041;-33
2023/04/02 01:21:41;;;;;;;4.15;0.57;;;;;;;17.62;54.45;95942.44;10371802;28;20129;-33
2023/04/02 01:26:52;;;;;;;1.33;0.43;;;;;;;17.63;53.81;95944.09;10353227;28;20033;-33
2023/04/02 01:31:59;;;;;;;1.45;0.65;;;;;;;17.63;53.55;95944.09;10365092;28;20029;-32
2023/04/02 01:37:37;;;;;;;1.23;0.50;;;;;;;17.63;53.19;95954.22;10357181;28;20057;-33
2023/04/02 01:42:51;;;;;;;0.63;0.50;;;;;;;17.63;53.86;95951.69;10342632;28;20068;-34
2023/04/02 01:47:52;;;;;;;1.13;0.70;;;;;;;17.61;60.73;95949.19;10362430;28;20088;-33
2023/04/02 01:52:55;;;;;;;2.17;0.60;;;;;;;17.64;60.87;95951.69;10323282;28;20092;-33
2023/04/02 01:58:00;;;;;;;1.08;0.60;;;;;;;17.62;60.20;95957.63;10321472;28;20499;-33
2023/04/02 02:03:01;;;;;;;3.08;0.47;;;;;;;17.63;54.54;95954.22;10356030;28;20038;-33
2023/04/02 02:08:19;;;;;;;0.60;0.30;;;;;;;17.64;53.40;95960.97;10335361;28;20033;-33
2023/04/02 02:13:20;;;;;;;0.88;0.40;;;;;;;17.64;53.56;95960.97;10340586;28;20033;-34
2023/04/02 02:18:22;;;;;;;1.40;0.68;;;;;;;17.63;53.14;95965.19;10348293;28;20026;-33
2023/04/02 02:23:23;;;;;;;1.55;0.63;;;;;;;17.63;53.07;95965.19;10347017;28;20125;-34
2023/04/02 02:28:28;;;;;;;0.75;0.40;;;;;;;17.60;52.84;95970.31;10364466;28;20029;-34
2023/04/02 02:33:37;;;;;;;1.05;0.30;;;;;;;17.63;53.94;95966.88;10376844;28;20038;-33
2023/04/02 02:38:48;;;;;;;0.52;0.38;;;;;;;17.62;52.78;95983.78;10347163;28;20042;-33
2023/04/02 02:43:58;;;;;;;1.02;0.40;;;;;;;17.61;59.01;95977.03;10343605;28;20053;-34
2023/04/02 02:49:03;;;;;;;3.05;0.50;;;;;;;17.62;60.74;95978.72;10350144;28;20121;-33
2023/04/02 02:54:04;;;;;;;1.95;0.30;;;;;;;17.60;60.70;95990.56;10342713;28;20080;-33
2023/04/02 02:59:08;;;;;;;0.68;0.50;;;;;;;17.59;56.70;95996.44;10355671;28;20456;-33
2023/04/02 03:04:19;;;;;;;0.75;0.35;;;;;;;17.61;53.93;95996.44;10347438;28;20059;-33
2023/04/02 03:09:20;;;;;;;1.27;0.55;;;;;;;17.61;53.75;96006.56;10347647;28;20061;-33
2023/04/02 03:14:36;;;;;;;0.52;0.20;;;;;;;17.63;55.37;96009.91;10337545;28;20053;-32
2023/04/02 03:19:46;;;;;;;1.40;0.30;;;;;;;17.59;53.35;96013.34;10358069;28;20040;-33
2023/04/02 03:24:58;;;;;;;0.75;0.40;;;;;;;17.61;52.97;96021.75;10355656;28;20453;-33
2023/04/02 03:30:26;;;;;;;0.70;0.40;;;;;;;17.57;53.00;96012.50;10353602;28;20309;-32
2023/04/02 03:35:27;;;;;;;0.50;0.40;;;;;;;17.58;53.36;96031.91;10350982;28;20033;-33
2023/04/02 03:40:37;;;;;;;0.60;0.30;;;;;;;17.58;52.91;96035.25;10344373;28;20449;-33
2023/04/02 03:45:43;;;;;;;0.35;0.20;;;;;;;17.58;60.34;96036.97;10359882;28;20144;-34
2023/04/02 03:51:00;;;;;;;1.90;0.60;;;;;;;17.59;60.53;96039.47;10333597;28;20026;-33
2023/04/02 03:56:01;;;;;;;;;;;;;;;17.58;60.55;96057.22;10335211;28;20518;-33
2023/04/02 04:01:17;;;;;;;1.40;0.40;;;;;;;17.58;55.21;96044.56;10341035;28;19913;-33
2023/04/02 04:06:23;;;;;;;0.70;0.30;;;;;;;17.57;55.01;96056.34;10331728;28;20052;-34
2023/04/02 04:11:34;;;;;;;1.55;0.50;;;;;;;17.56;53.54;96059.75;10340120;28;20089;-33
2023/04/02 04:16:52;;;;;;;1.40;0.20;;;;;;;17.59;53.27;96071.53;10330499;28;20026;-33
2023/04/02 04:22:18;;;;;;;0.77;0.20;;;;;;;17.57;53.41;96075.78;10353378;28;20038;-32
2023/04/02 04:27:35;;;;;;;0.80;0.28;;;;;;;17.57;52.96;96080.84;10348198;28;20267;-33
2023/04/02 04:32:48;;;;;;;1.27;0.32;;;;;;;17.56;53.40;96089.28;10349579;28;20026;-33
2023/04/02 04:38:02;;;;;;;0.55;0.40;;;;;;;17.55;52.86;96090.97;10358972;28;20409;-33
2023/04/02 04:43:12;;;;;;;0.30;0.30;;;;;;;17.55;56.71;96102.78;10347554;28;20140;-33
2023/04/02 04:48:13;;;;;;;1.08;0.60;;;;;;;17.57;60.40;96101.09;10340128;28;20461;-33
2023/04/02 04:53:18;;;;;;;0.95;0.50;;;;;;;17.56;60.65;96112.06;10336805;28;20960;-33
2023/04/02 04:58:30;;;;;;;1.67;0.50;;;;;;;17.57;60.00;96113.75;10334223;28;20057;-33
2023/04/02 05:03:43;;;;;;;0.57;0.30;;;;;;;17.55;55.72;96102.78;10355550;28;20122;-33
2023/04/02 05:08:48;;;;;;;0.22;0.00;;;;;;;17.54;53.94;96117.13;10326576;28;20057;-34
2023/04/02 05:14:05;;;;;;;1.20;0.43;;;;;;;17.56;55.27;96134.84;10356796;28;20054;-32
2023/04/02 05:19:12;;;;;;;0.40;0.40;;;;;;;17.53;59.73;96135.69;10365071;28;20038;-32
2023/04/02 05:24:37;;;;;;;0.60;0.40;;;;;;;17.52;59.97;96135.69;10345496;28;20328;-33
2023/04/02 05:29:43;;;;;;;0.60;0.40;;;;;;;17.56;59.09;96134.84;10343742;28;20052;-33
2023/04/02 05:34:48;;;;;;;0.52;0.30;;;;;;;17.53;60.07;96134.84;10386480;28;20021;-34
2023/04/02 05:39:54;;;;;;;1.88;0.40;;;;;;;17.51;60.18;96141.63;10365755;28;20056;-33
2023/04/02 05:45:26;;;;;;;1.35;0.38;;;;;;;17.52;60.39;96141.63;10332673;28;20428;-34
2023/04/02 05:50:35;;;;;;;0.38;0.20;;;;;;;17.58;60.49;96135.69;10344037;28;20050;-34
2023/04/02 05:55:43;;;;;;;1.35;0.40;;;;;;;17.61;59.22;96148.31;10358071;28;20026;-34
2023/04/02 06:01:00;;;;;;;0.63;0.30;;;;;;;17.60;58.92;96146.63;10361892;28;20034;-33
2023/04/02 06:06:11;;;;;;;0.90;0.50;;;;;;;17.58;59.09;96146.63;10353062;28;20130;-34
2023/04/02 06:11:19;;;;;;;1.83;0.38;;;;;;;17.62;58.78;96160.09;10380069;28;20389;-33
2023/04/02 06:16:24;;;;;;;1.27;0.40;;;;;;;17.61;58.24;96159.28;10359072;28;20064;-32
2023/04/02 06:21:24;;;;;;;0.95;0.50;;;;;;;17.60;57.49;96162.66;10377156;28;20033;-33
2023/04/02 06:26:32;;;;;;;0.80;0.60;;;;;;;17.60;58.58;96156.75;10361014;28;20510;-34
2023/04/02 06:31:44;;;;;;;0.32;0.20;;;;;;;17.58;57.97;96163.50;10339057;28;20034;-33
2023/04/02 06:36:48;;;;;;;0.90;0.88;;;;;;;17.60;57.88;96172.78;10313191;28;20110;-33
2023/04/02 06:42:05;;;;;;;1.13;0.40;;;;;;;17.61;57.84;96178.69;10338747;28;20026;-33
2023/04/02 06:47:41;;;;;;;0.32;0.20;;;;;;;17.60;58.83;96193.03;10329118;28;20042;-33
2023/04/02 06:52:53;;;;;;;0.32;0.28;;;;;;;17.59;59.44;96196.38;10341426;28;20120;-34
2023/04/02 06:57:54;;;;;;;0.35;0.35;;;;;;;17.61;58.80;96201.47;10338983;28;20030;-34
2023/04/02 07:02:58;;;;;;;0.40;0.20;;;;;;;17.61;57.50;96204.84;10345858;28;20064;-33
2023/04/02 07:07:58;;;;;;;1.75;0.32;;;;;;;17.60;57.14;96212.44;10334276;28;20029;-34
2023/04/02 07:13:01;;;;;;;1.00;0.25;;;;;;;17.60;56.99;96205.69;10335555;28;20041;-33
2023/04/02 07:18:02;;;;;;;0.52;0.30;;;;;;;17.61;57.68;96224.22;10353308;28;20021;-34
2023/04/02 07:23:03;;;;;;;1.13;0.40;;;;;;;17.63;57.07;96222.53;10324311;28;20084;-33
2023/04/02 07:28:03;;;;;;;0.60;0.38;;;;;;;17.64;56.55;96230.13;10358412;28;20398;-33
2023/04/02 07:33:04;;;;;;;0.40;0.30;;;;;;;17.65;56.64;96238.56;10338881;28;20026;-33
2023/04/02 07:38:05;;;;;;;1.75;0.30;;;;;;;17.62;56.92;96241.09;10351456;28;20461;-33
2023/04/02 07:43:05;;;;;;;1.35;0.45;;;;;;;17.62;56.84;96241.97;10347006;28;20034;-33
2023/04/02 07:48:06;;;;;;;2.33;0.50;;;;;;;17.56;56.77;96251.28;10352066;28;20034;-33
2023/04/02 07:53:26;;;;;;;2.42;0.80;;;;;;;17.57;58.29;96248.72;10366154;28;20283;-33
2023/04/02 07:58:28;;;;;;;1.15;0.40;;;;;;;17.61;57.78;96264.72;10377338;28;20041;-33
2023/04/02 08:03:28;;;;;;;0.73;0.40;;;;;;;17.58;57.44;96264.75;10383236;28;20034;-33
2023/04/02 08:08:28;;;;;;;0.70;0.40;;;;;;;17.59;56.28;96274.03;10374358;28;20053;-33
2023/04/02 08:13:30;;;;;;;1.20;0.50;;;;;;;17.60;56.92;96278.25;10369047;28;20038;-33
2023/04/02 08:18:31;;;;;;;0.73;0.60;;;;;;;17.61;58.80;96285.84;10374688;28;20292;-32
2023/04/02 08:23:32;;;;;;;2.92;0.80;;;;;;;17.60;58.99;96291.75;10382812;28;20131;-33
2023/04/02 08:28:33;;;;;;;2.15;0.50;;;;;;;17.59;59.35;96291.75;10369330;28;20044;-33
2023/04/02 08:33:33;;;;;;;1.10;0.50;;;;;;;17.60;59.24;96313.69;10386984;28;20037;-33
2023/04/02 08:38:33;;;;;;;2.43;0.67;;;;;;;17.60;58.49;96313.69;10395104;28;20657;-34
2023/04/02 08:44:09;;;;;;;1.57;0.67;;;;;;;17.57;58.46;96313.69;10382237;28;20057;-33
2023/04/02 08:49:14;;;;;;;1.40;0.82;;;;;;;17.60;59.35;96316.22;10264504;28;20304;-33
2023/04/02 08:54:42;;;;;;;2.83;1.00;;;;;;;17.60;59.62;96321.28;10389379;28;20025;-34
2023/04/02 08:59:44;;;;;;;6.07;1.00;;;;;;;17.61;59.63;96333.94;10391390;28;20528;-33
2023/04/02 09:04:44;;;;;;;0.95;0.55;;;;;;;17.62;57.76;96327.16;10386985;28;20033;-33
2023/04/02 09:09:49;;;;;;;3.75;1.40;;;;;;;17.63;59.19;96326.31;10380990;28;20431;-33
2023/04/02 09:15:05;;;;;;;1.00;0.70;;;;;;;17.63;58.24;96338.97;10378456;28;20571;-33
2023/04/02 09:20:22;;;;;;;1.05;0.77;;;;;;;17.62;57.94;96334.75;10350157;28;20030;-33
2023/04/02 09:25:26;;;;;;;5.53;0.85;;;;;;;17.63;59.23;96349.94;10351314;28;20041;-34
2023/04/02 09:30:42;;;;;;;2.92;1.40;;;;;;;17.64;59.88;96345.72;10377721;28;20033;-33
2023/04/02 09:35:48;;;;;;;3.33;1.03;;;;;;;17.63;60.10;96349.09;10365601;28;20128;-34
2023/04/02 09:41:05;;;;;;;6.10;1.15;;;;;;;17.63;60.69;96351.63;10380670;28;20043;-33
2023/04/02 09:46:21;;;;;;;3.95;1.30;;;;;;;17.62;59.65;96357.53;10382730;28;20148;-33
2023/04/02 09:51:26;;;;;;;2.27;0.93;;;;;;;17.60;56.70;96355.03;10370165;28;20030;-34
2023/04/02 09:56:28;;;;;;;2.97;1.00;;;;;;;17.63;60.35;96356.69;10353038;28;20034;-33
2023/04/02 10:01:32;;;;;;;4.22;1.10;;;;;;;17.66;60.13;96369.34;10362913;28;20494;-33
2023/04/02 10:06:33;;;;;;;4.20;1.10;;;;;;;17.65;59.46;96367.69;10358578;28;20109;-33
2023/04/02 10:11:34;;;;;;;3.80;1.15;;;;;;;17.63;56.89;96374.41;10357792;28;20033;-32
2023/04/02 10:16:44;;;;;;;3.92;1.17;;;;;;;17.63;56.23;96374.41;10368680;28;20033;-32
2023/04/02 10:21:47;;;;;;;1.08;0.70;;;;;;;17.65;58.03;96387.94;10340002;28;20509;-33
2023/04/02 10:27:21;;;;;;;3.70;0.90;;;;;;;17.63;56.24;96387.94;10381655;28;20444;-33
2023/04/02 10:32:50;;;;;;;4.35;1.90;;;;;;;17.63;56.46;96389.59;10339704;28;20056;-34
2023/04/02 10:38:06;;;;;;;3.40;0.80;;;;;;;17.64;59.01;96401.41;10364427;28;20022;-33
2023/04/02 10:43:29;;;;;;;2.20;0.87;;;;;;;17.65;60.11;96403.13;10351586;28;20046;-33
2023/04/02 10:48:43;;;;;;;4.07;0.90;;;;;;;17.63;58.87;96402.25;10358444;28;20042;-33
2023/04/02 10:53:53;;;;;;;2.95;0.80;;;;;;;17.68;56.61;96410.69;10370812;28;20606;-32
2023/04/02 10:59:04;;;;;;;8.40;1.10;;;;;;;17.68;60.52;96413.22;10365900;28;20521;-34
2023/04/02 11:04:12;;;;;;;7.15;2.15;;;;;;;17.69;60.74;96412.38;10369960;28;20034;-33
2023/04/02 11:09:19;;;;;;;3.92;0.80;;;;;;;17.65;56.99;96409.00;10355572;28;20033;-33
2023/04/02 11:14:23;;;;;;;4.10;0.98;;;;;;;17.66;58.88;96422.53;10382403;28;20042;-34
2023/04/02 11:19:27;;;;;;;4.35;0.77;;;;;;;17.65;55.40;96418.31;10345478;28;20083;-34
2023/04/02 11:24:35;;;;;;;5.25;0.70;;;;;;;17.67;57.11;96427.56;10352649;28;20038;-33
2023/04/02 11:29:56;;;;;;;3.35;0.65;;;;;;;17.66;55.98;96435.19;10335760;28;20041;-33
2023/04/02 11:35:00;;;;;;;4.50;0.98;;;;;;;17.68;54.88;96446.13;10351685;28;20037;-33
2023/04/02 11:40:10;;;;;;;5.25;0.65;;;;;;;17.70;54.41;96446.97;10378210;28;20110;-33
2023/04/02 11:45:22;;;;;;;4.65;0.80;;;;;;;17.61;55.25;96444.47;10356190;28;20528;-33
2023/04/02 11:50:43;;;;;;;7.32;0.80;;;;;;;17.67;55.75;96457.13;10350672;28;20045;-33
2023/04/02 11:55:45;;;;;;;4.68;0.88;;;;;;;17.69;57.59;96461.34;10368307;28;20036;-33
2023/04/02 12:01:13;;;;;;;8.18;1.08;;;;;;;17.69;61.08;96471.47;10350552;28;20034;-33
2023/04/02 12:06:48;;;;;;;13.13;2.75;;;;;;;17.68;61.34;96468.94;10376776;28;20042;-33
2023/04/02 12:11:55;;;;;;;9.75;1.30;;;;;;;17.67;58.29;96467.25;10362303;28;20038;-34
2023/04/02 12:16:56;;;;;;;4.25;1.02;;;;;;;17.66;56.57;96475.69;10341339;28;20029;-33
2023/04/02 12:21:59;;;;;;;4.45;1.05;;;;;;;17.67;57.89;96474.84;10349536;28;20034;-33
2023/04/02 12:27:16;;;;;;;3.13;0.98;;;;;;;17.63;54.75;96473.13;10356570;28;20416;-33
2023/04/02 12:32:20;;;;;;;;;;;;;;;17.66;55.93;96475.69;10357019;28;20034;-34
2023/04/02 12:37:23;;;;;;;2.72;0.90;;;;;;;17.66;58.73;96486.63;10356715;28;20270;-33
2023/04/02 12:42:35;;;;;;;1.60;0.90;;;;;;;17.64;54.30;96487.47;10361465;28;20482;-33
2023/04/02 12:47:35;;;;;;;1.02;0.70;;;;;;;17.65;54.43;96496.78;10351806;28;20030;-33
2023/04/02 12:52:46;;;;;;;4.30;1.27;;;;;;;17.53;54.28;96494.25;10358774;28;20038;-34
2023/04/02 12:57:50;;;;;;;8.15;1.67;;;;;;;17.59;53.61;96499.31;10383986;28;20026;-33
2023/04/02 13:02:57;;;;;;;10.40;2.72;;;;;;;17.68;61.42;96496.78;10380574;28;20036;-32
2023/04/02 13:07:58;;;;;;;15.68;1.90;;;;;;;17.78;60.69;96508.56;10372629;28;20058;-32
2023/04/02 13:13:01;;;;;;;7.35;1.83;;;;;;;17.72;55.28;96508.56;10383416;28;20121;-33
2023/04/02 13:18:20;;;;;;;5.70;2.75;;;;;;;17.66;53.79;96506.88;10382752;28;20022;-33
2023/04/02 13:23:31;;;;;;;8.57;3.55;;;;;;;17.64;53.57;96517.84;10355933;28;20030;-32
2023/04/02 13:28:31;;;;;;;8.95;2.67;;;;;;;17.67;56.07;96522.94;10362841;28;20601;-33
2023/04/02 13:33:32;;;;;;;7.95;2.75;;;;;;;17.65;54.66;96529.69;10381156;28;20124;-33
2023/04/02 13:38:32;;;;;;;6.63;2.60;;;;;;;17.63;54.42;96533.88;10366696;28;20040;-33
2023/04/02 13:43:32;;;;;;;7.07;2.00;;;;;;;17.60;54.31;96537.28;10352914;28;20053;-33
2023/04/02 13:48:33;;;;;;;5.93;1.60;;;;;;;17.61;54.54;96538.13;10361822;28;20303;-33
2023/04/02 13:53:33;;;;;;;3.80;1.70;;;;;;;17.58;54.14;96540.66;10366944;28;20569;-33
2023/04/02 13:58:33;;;;;;;2.70;1.57;;;;;;;17.58;54.25;96551.59;10348425;28;20096;-33
2023/04/02 14:03:34;;;;;;;4.15;1.13;;;;;;;17.66;60.99;96551.63;10365075;28;20293;-33
2023/04/02 14:08:49;;;;;;;7.97;1.80;;;;;;;17.68;61.84;96555.00;10353418;28;20038;-33
2023/04/02 14:14:04;;;;;;;4.97;1.23;;;;;;;17.69;59.58;96564.28;10342062;28;20391;-34
2023/04/02 14:19:19;;;;;;;9.00;1.63;;;;;;;17.62;56.11;96570.19;10347800;28;20049;-33
2023/04/02 14:24:41;;;;;;;1.75;1.10;;;;;;;17.61;55.04;96568.50;10357057;28;20044;-32
2023/04/02 14:29:50;;;;;;;2.85;1.13;;;;;;;17.58;54.56;96571.03;10341412;28;20117;-33
2023/04/02 14:35:12;;;;;;;7.57;1.20;;;;;;;17.60;54.47;96584.53;10364207;28;20042;-33
2023/04/02 14:40:26;;;;;;;5.10;1.05;;;;;;;17.57;54.60;96589.59;10367219;28;20036;-33
2023/04/02 14:45:36;;;;;;;3.90;1.52;;;;;;;17.56;54.40;96595.50;10372029;28;20482;-34
2023/04/02 14:50:39;;;;;;;3.30;1.20;;;;;;;17.56;54.00;96600.56;10348581;28;20041;-32
2023/04/02 14:55:42;;;;;;;1.55;0.85;;;;;;;17.55;53.73;96608.97;10330160;28;20046;-32
2023/04/02 15:00:54;;;;;;;5.65;1.80;;;;;;;17.54;54.13;96605.63;10360939;28;20060;-33
2023/04/02 15:06:01;;;;;;;7.72;2.55;;;;;;;17.58;59.48;96612.34;10350264;28;20324;-33
2023/04/02 15:11:08;;;;;;;6.45;2.65;;;;;;;17.67;60.50;96609.00;10374970;28;20033;-35
2023/04/02 15:16:13;;;;;;;8.38;2.53;;;;;;;17.66;60.72;96625.06;10346694;28;20466;-33
2023/04/02 15:21:29;;;;;;;3.92;1.60;;;;;;;17.63;56.20;96633.47;10356560;28;20030;-33
2023/04/02 15:26:55;;;;;;;2.92;1.20;;;;;;;17.60;55.24;96632.63;10359666;28;20066;-33
2023/04/02 15:32:31;;;;;;;2.85;1.42;;;;;;;17.59;54.62;96625.88;10367230;28;20489;-34
2023/04/02 15:37:49;;;;;;;3.75;1.23;;;;;;;17.56;54.27;96630.94;10342511;28;20026;-33
2023/04/02 15:43:04;;;;;;;4.70;1.30;;;;;;;17.56;54.48;96636.84;10354368;28;20046;-40
2023/04/02 15:48:27;;;;;;;2.58;0.88;;;;;;;17.56;54.01;96636.00;10366561;28;20073;-33
2023/04/02 15:53:47;;;;;;;2.72;1.00;;;;;;;17.56;54.35;96641.06;10331217;28;20552;-33
2023/04/02 15:59:18;;;;;;;2.58;1.20;;;;;;;17.57;55.88;96650.34;10359272;28;20132;-33
2023/04/02 16:04:44;;;;;;;3.13;0.80;;;;;;;17.31;55.29;96649.41;10381762;28;20507;-33
2023/04/02 16:09:51;;;;;;;10.55;2.10;;;;;;;17.48;59.45;96657.91;10348103;28;20041;-33
2023/04/02 16:14:57;;;;;;;12.32;2.72;;;;;;;17.58;61.27;96664.69;10366700;28;20042;-34
2023/04/02 16:20:31;;;;;;;8.90;1.92;;;;;;;17.51;58.83;96660.44;10370547;28;20043;-33
2023/04/02 16:25:45;;;;;;;4.78;1.77;;;;;;;17.56;57.65;96666.38;10374718;28;20057;-33
2023/04/02 16:31:06;;;;;;;7.10;1.80;;;;;;;17.54;56.01;96673.09;10372219;28;20049;-33
2023/04/02 16:36:15;;;;;;;8.48;2.88;;;;;;;17.52;56.13;96680.72;10370879;28;20034;-33
2023/04/02 16:41:34;;;;;;;6.22;2.10;;;;;;;17.53;55.47;96681.53;10386367;28;20414;-33
2023/04/02 16:46:59;;;;;;;5.20;1.95;;;;;;;17.53;56.04;96687.47;10383703;28;20080;-33
2023/04/02 16:52:19;;;;;;;8.40;2.35;;;;;;;17.56;56.00;96701.81;10364538;28;20083;-33
2023/04/02 16:57:33;;;;;;;5.78;1.88;;;;;;;17.55;54.64;96706.03;10369531;28;20069;-34
2023/04/02 17:02:43;;;;;;;5.85;2.08;;;;;;;17.60;54.37;96708.56;10356423;28;20113;-33
2023/04/02 17:08:00;;;;;;;5.68;2.05;;;;;;;17.60;53.99;96713.63;10362057;28;20038;-33
2023/04/02 17:13:07;;;;;;;23.85;6.43;;;;;;;17.64;60.33;96711.13;10359386;28;20117;-33
2023/04/02 17:18:20;;;;;;;23.67;7.10;;;;;;;17.66;62.79;96728.84;10365281;28;20030;-33
2023/04/02 17:23:22;;;;;;;19.35;6.05;;;;;;;17.67;62.78;96735.59;10369285;28;20040;-32
2023/04/02 17:28:28;;;;;;;9.70;4.00;;;;;;;17.61;56.37;96736.44;10352375;28;20092;-33
2023/04/02 17:33:29;;;;;;;9.10;2.60;;;;;;;17.57;55.13;96736.41;10382283;28;20115;-33
2023/04/02 17:38:57;;;;;;;12.32;3.40;;;;;;;17.57;55.07;96744.00;10362721;28;20033;-33
2023/04/02 17:44:29;;;;;;;7.65;2.63;;;;;;;17.57;54.79;96759.19;10351759;28;20088;-33
2023/04/02 17:49:50;;;;;;;5.78;2.38;;;;;;;17.55;54.67;96776.03;10368771;28;20095;-33
2023/04/02 17:55:19;;;;;;;10.10;2.90;;;;;;;17.53;54.39;96777.72;10359321;28;20547;-32
2023/04/02 18:00:34;;;;;;;10.18;3.60;;;;;;;17.52;54.28;96776.03;10352837;28;20041;-33
2023/04/02 18:05:43;;;;;;;10.75;3.15;;;;;;;17.52;54.22;96784.50;10349060;28;20514;-32
2023/04/02 18:11:02;;;;;;;10.55;3.15;;;;;;;17.53;54.13;96791.25;10351475;28;20030;-32
2023/04/02 18:16:20;;;;;;;9.65;3.10;;;;;;;17.56;54.11;96798.84;10351073;28;20041;-33
2023/04/02 18:21:42;;;;;;;18.92;6.78;;;;;;;17.63;62.66;96804.78;10373403;28;20033;-33
2023/04/02 18:26:58;;;;;;;18.98;6.60;;;;;;;17.64;62.40;96806.47;10364413;28;20038;-33
2023/04/02 18:32:11;;;;;;;14.63;5.05;;;;;;;17.66;60.66;96825.06;10324567;28;20045;-33
2023/04/02 18:37:33;;;;;;;13.18;4.15;;;;;;;17.63;56.69;96825.88;10341796;28;20133;-33
2023/04/02 18:42:45;;;;;;;11.18;4.57;;;;;;;17.64;59.22;96834.31;10339186;28;20041;-33
2023/04/02 18:47:50;;;;;;;12.63;5.18;;;;;;;17.64;58.83;96841.91;10373756;28;20084;-33
2023/04/02 18:52:51;;;;;;;10.65;3.78;;;;;;;17.63;55.94;96846.13;10369658;28;20041;-32
2023/04/02 18:57:57;;;;;;;11.18;3.65;;;;;;;17.63;56.15;96855.41;10360579;28;20037;-32
2023/04/02 19:03:10;;;;;;;8.65;3.17;;;;;;;17.63;55.13;96860.47;10350754;28;20047;-33
2023/04/02 19:08:18;;;;;;;6.30;2.75;;;;;;;17.62;55.16;96859.63;10339306;28;20453;-33
2023/04/02 19:13:20;;;;;;;7.70;3.40;;;;;;;17.61;55.09;96870.59;10360956;28;20486;-33
2023/04/02 19:18:29;;;;;;;9.27;3.60;;;;;;;17.61;54.83;96879.88;10348697;28;20025;-32
2023/04/02 19:23:55;;;;;;;11.30;4.57;;;;;;;17.64;61.75;96884.94;10372717;28;20092;-33
2023/04/02 19:29:04;;;;;;;11.13;5.53;;;;;;;17.65;62.01;96891.72;10346313;28;20061;-33
2023/04/02 19:34:34;;;;;;;9.02;4.35;;;;;;;17.63;61.88;96890.84;10362308;28;20168;-32
2023/04/02 19:39:58;;;;;;;9.35;3.85;;;;;;;17.62;56.36;96896.75;10362960;28;20087;-32
2023/04/02 19:44:59;;;;;;;9.02;3.50;;;;;;;17.60;55.97;96900.97;10357118;28;20030;-32
2023/04/02 19:49:59;;;;;;;8.82;2.55;;;;;;;17.62;56.20;96910.28;10345753;28;20039;-33
2023/04/02 19:55:00;;;;;;;9.13;3.78;;;;;;;17.63;57.11;96923.75;10359789;28;20116;-33
2023/04/02 20:00:00;;;;;;;11.77;4.00;;;;;;;17.61;58.38;96918.72;10359640;28;20110;-32
2023/04/02 20:05:01;;;;;;;10.37;3.37;;;;;;;17.61;56.75;96938.97;10361664;28;20042;-33
2023/04/02 20:10:01;;;;;;;8.10;3.45;;;;;;;17.62;57.44;96944.84;10357558;28;20030;-33
2023/04/02 20:15:03;;;;;;;8.10;3.40;;;;;;;17.61;57.81;96933.91;10367754;28;20034;-33
2023/04/02 20:20:04;;;;;;;6.93;3.75;;;;;;;17.62;56.94;96949.91;10365641;28;20120;-33
2023/04/02 20:25:05;;;;;;;9.13;3.92;;;;;;;17.62;57.58;96954.97;10363677;28;20046;-33
2023/04/02 20:30:06;;;;;;;15.95;4.70;;;;;;;17.60;61.29;96949.06;10351460;28;20108;-33
2023/04/02 20:35:07;;;;;;;10.30;4.35;;;;;;;17.64;61.86;96953.31;10381558;28;20022;-37
2023/04/02 20:40:08;;;;;;;6.07;3.28;;;;;;;17.55;60.59;96958.31;10367923;28;20030;-33
2023/04/02 20:45:09;;;;;;;11.80;3.97;;;;;;;17.44;61.02;96970.03;10365820;28;20301;-32
2023/04/02 20:50:10;;;;;;;8.88;3.40;;;;;;;17.45;60.77;96977.66;10376686;28;20038;-33
2023/04/02 20:55:10;;;;;;;6.22;3.20;;;;;;;17.52;58.00;96974.34;10373496;28;20405;-32
2023/04/02 21:00:11;;;;;;;7.28;3.28;;;;;;;17.54;57.04;96982.78;10381573;28;20562;-32
2023/04/02 21:05:11;;;;;;;7.65;3.05;;;;;;;17.56;58.96;96990.41;10360926;28;20030;-32
2023/04/02 21:10:12;;;;;;;6.97;3.43;;;;;;;17.52;60.67;96993.72;10348990;28;20045;-32
2023/04/02 21:15:12;;;;;;;12.07;4.50;;;;;;;17.45;62.32;96991.97;10342248;28;20443;-33
2023/04/02 21:20:12;;;;;;;6.77;3.20;;;;;;;17.42;61.83;96994.50;10360353;28;20293;-32
2023/04/02 21:25:13;;;;;;;8.75;3.28;;;;;;;17.40;62.10;96988.59;10340155;28;20096;-33
2023/04/02 21:30:14;;;;;;;9.25;3.63;;;;;;;17.42;61.14;97004.63;10349233;28;20046;-32
2023/04/02 21:35:14;;;;;;;6.95;3.40;;;;;;;17.54;62.32;97004.72;10352389;28;20483;-32
2023/04/02 21:40:14;;;;;;;9.63;3.73;;;;;;;17.55;62.64;97004.72;10359379;28;20037;-33
2023/04/02 21:45:15;;;;;;;8.95;4.05;;;;;;;17.54;61.25;97007.25;10350437;28;20407;-33
2023/04/02 21:50:15;;;;;;;5.32;3.17;;;;;;;17.42;61.82;97007.97;10351436;28;20116;-33
2023/04/02 21:55:16;;;;;;;8.65;3.58;;;;;;;17.38;61.91;96998.69;10356577;28;20418;-33
2023/04/02 22:00:16;;;;;;;6.47;3.17;;;;;;;17.36;61.96;97009.63;10347260;28;20125;-33
2023/04/02 22:05:18;;;;;;;7.97;3.47;;;;;;;17.37;61.63;97009.66;10344022;28;20049;-32
2023/04/02 22:10:18;;;;;;;6.93;3.00;;;;;;;17.35;61.57;97013.81;10360696;28;20040;-33
2023/04/02 22:15:18;;;;;;;5.07;2.20;;;;;;;17.35;61.57;97015.50;10358464;28;20479;-32
2023/04/02 22:20:19;;;;;;;4.70;2.73;;;;;;;17.36;61.56;97019.75;10346946;28;20072;-33
2023/04/02 22:25:19;;;;;;;5.90;3.23;;;;;;;17.34;61.51;97019.69;10370213;28;20275;-33
2023/04/02 22:30:20;;;;;;;6.47;2.80;;;;;;;17.35;61.35;97026.47;10360411;28;20801;-33
2023/04/02 22:35:20;;;;;;;6.80;2.92;;;;;;;17.35;61.33;97020.53;10348881;28;20365;-33
2023/04/02 22:40:20;;;;;;;8.47;3.00;;;;;;;17.45;62.00;97028.28;10369421;28;20430;-33
2023/04/02 22:45:21;;;;;;;6.38;2.97;;;;;;;17.48;61.83;97033.34;10342952;28;20491;-32
2023/04/02 22:50:21;;;;;;;5.65;2.35;;;;;;;17.50;60.23;97036.75;10352704;28;20034;-33
2023/04/02 22:55:22;;;;;;;6.22;2.63;;;;;;;17.39;61.32;97047.59;10353192;28;20026;-33
2023/04/02 23:00:23;;;;;;;7.07;2.17;;;;;;;17.34;61.32;97049.22;10360058;28;20034;-32
2023/04/02 23:05:23;;;;;;;5.82;2.75;;;;;;;17.35;60.86;97046.72;10342289;28;20647;-32
2023/04/02 23:10:24;;;;;;;4.20;2.33;;;;;;;17.34;61.28;97054.28;10359694;28;20033;-32
2023/04/02 23:15:24;;;;;;;5.05;2.47;;;;;;;17.32;60.50;97061.84;10356891;28;20026;-33
2023/04/02 23:20:24;;;;;;;6.50;2.17;;;;;;;17.31;61.28;97059.31;10336198;28;20045;-33
2023/04/02 23:25:25;;;;;;;4.70;2.43;;;;;;;17.32;60.62;97055.97;10342778;28;20104;-33
2023/04/02 23:30:25;;;;;;;3.10;1.90;;;;;;;17.34;60.83;97061.88;10351518;28;20041;-33
2023/04/02 23:35:26;;;;;;;5.97;2.13;;;;;;;17.31;61.13;97061.84;10366210;28;20030;-32
2023/04/02 23:40:27;;;;;;;12.75;2.50;;;;;;;17.33;60.14;97065.25;10353311;28;20045;-33
2023/04/02 23:45:27;;;;;;;4.27;2.53;;;;;;;17.43;61.24;97065.38;10340451;28;20111;-33
2023/04/02 23:50:28;;;;;;;5.00;2.57;;;;;;;17.43;61.18;97054.41;10337702;28;20550;-33
2023/04/02 23:55:28;;;;;;;4.10;2.33;;;;;;;17.42;60.19;97048.47;10355422;28;20513;-32
